createdAt,value
2022-09-11T00:00:53.056Z,15.73
2022-09-11T00:03:21.493Z,15.80
2022-09-11T00:05:47.854Z,15.69
2022-09-11T00:08:19.300Z,15.78
2022-09-11T00:10:48.292Z,15.81
2022-09-11T00:13:21.064Z,15.82
2022-09-11T00:15:49.503Z,15.82
2022-09-11T00:18:17.718Z,15.73
2022-09-11T00:20:52.667Z,15.72
2022-09-11T00:23:19.993Z,15.73
2022-09-11T00:25:47.320Z,15.59
2022-09-11T00:28:15.925Z,15.55
2022-09-11T00:30:46.043Z,15.57
2022-09-11T00:33:14.003Z,15.47
2022-09-11T00:35:40.999Z,15.36
2022-09-11T00:38:16.644Z,15.53
2022-09-11T00:40:47.602Z,15.49
2022-09-11T00:43:16.542Z,15.57
2022-09-11T00:45:45.989Z,15.52
2022-09-11T00:48:15.094Z,15.69
2022-09-11T00:50:43.624Z,15.36
2022-09-11T00:53:11.512Z,15.40
2022-09-11T00:55:41.745Z,15.35
2022-09-11T00:58:12.032Z,15.02
2022-09-11T01:00:39.533Z,15.23
2022-09-11T01:03:06.149Z,15.16
2022-09-11T01:05:34.672Z,15.23
2022-09-11T01:08:03.740Z,15.25
2022-09-11T01:10:46.604Z,15.22
2022-09-11T01:13:24.732Z,14.96
2022-09-11T01:16:12.685Z,14.96
2022-09-11T01:19:01.587Z,15.06
2022-09-11T01:21:36.990Z,15.22
2022-09-11T01:24:16.815Z,15.22
2022-09-11T01:26:52.500Z,15.14
2022-09-11T01:29:34.514Z,15.06
2022-09-11T01:32:19.733Z,15.22
2022-09-11T01:34:59.353Z,15.04
2022-09-11T01:37:33.200Z,15.39
2022-09-11T01:40:02.050Z,15.32
2022-09-11T01:42:31.420Z,15.27
2022-09-11T01:44:57.771Z,15.11
2022-09-11T01:47:24.994Z,15.29
2022-09-11T01:49:56.086Z,15.31
2022-09-11T01:52:27.949Z,15.33
2022-09-11T01:54:59.613Z,15.14
2022-09-11T01:57:36.604Z,15.25
2022-09-11T02:00:07.438Z,15.22
2022-09-11T02:02:39.020Z,15.25
2022-09-11T02:05:22.938Z,15.42
2022-09-11T02:08:01.562Z,15.30
2022-09-11T02:10:34.988Z,15.38
2022-09-11T02:13:10.828Z,15.13
2022-09-11T02:15:44.390Z,14.98
2022-09-11T02:18:24.618Z,15.08
2022-09-11T02:20:53.357Z,15.08
2022-09-11T02:23:20.544Z,15.07
2022-09-11T02:25:47.932Z,15.10
2022-09-11T02:28:14.408Z,15.06
2022-09-11T02:30:41.528Z,15.14
2022-09-11T02:33:27.213Z,14.98
2022-09-11T02:35:54.633Z,15.09
2022-09-11T02:38:39.892Z,15.00
2022-09-11T02:41:15.564Z,15.16
2022-09-11T02:44:02.658Z,15.24
2022-09-11T02:46:51.711Z,15.36
2022-09-11T02:49:24.409Z,15.33
2022-09-11T02:52:03.176Z,15.32
2022-09-11T02:54:44.697Z,15.21
2022-09-11T02:57:20.872Z,15.16
2022-09-11T02:59:53.477Z,15.13
2022-09-11T03:02:20.087Z,15.06
2022-09-11T03:04:46.591Z,15.04
2022-09-11T03:07:12.953Z,15.06
2022-09-11T03:09:39.333Z,15.14
2022-09-11T03:12:05.999Z,15.29
2022-09-11T03:14:32.373Z,15.34
2022-09-11T03:16:58.840Z,15.12
2022-09-11T03:19:25.190Z,14.89
2022-09-11T03:21:51.599Z,14.88
2022-09-11T03:24:17.988Z,15.01
2022-09-11T03:26:44.365Z,15.09
2022-09-11T03:29:10.765Z,14.96
2022-09-11T03:31:39.295Z,14.86
2022-09-11T03:34:06.396Z,15.04
2022-09-11T03:36:34.302Z,14.63
2022-09-11T03:39:01.417Z,14.67
2022-09-11T03:41:27.781Z,14.77
2022-09-11T03:43:54.205Z,14.81
2022-09-11T03:46:20.561Z,14.50
2022-09-11T03:48:46.937Z,14.46
2022-09-11T03:51:14.987Z,14.71
2022-09-11T03:53:42.092Z,14.52
2022-09-11T03:56:08.516Z,14.59
2022-09-11T03:58:35.164Z,14.58
2022-09-11T04:01:01.620Z,14.67
2022-09-11T04:03:28.005Z,14.50
2022-09-11T04:05:59.874Z,14.49
2022-09-11T04:08:26.587Z,14.54
2022-09-11T04:11:06.597Z,14.37
2022-09-11T04:13:37.850Z,14.44
2022-09-11T04:16:10.667Z,14.50
2022-09-11T04:18:38.272Z,14.34
2022-09-11T04:21:10.371Z,14.61
2022-09-11T04:23:37.069Z,14.73
2022-09-11T04:26:05.371Z,14.71
2022-09-11T04:28:31.800Z,14.42
2022-09-11T04:31:04.352Z,14.43
2022-09-11T04:33:31.024Z,14.39
2022-09-11T04:35:57.422Z,14.40
2022-09-11T04:38:23.891Z,14.27
2022-09-11T04:40:50.254Z,14.25
2022-09-11T04:43:19.006Z,14.17
2022-09-11T04:45:45.416Z,14.24
2022-09-11T04:48:11.809Z,14.42
2022-09-11T04:50:38.164Z,14.29
2022-09-11T04:53:04.508Z,14.49
2022-09-11T04:55:30.848Z,14.25
2022-09-11T04:57:57.292Z,14.38
2022-09-11T05:00:24.745Z,14.28
2022-09-11T05:02:51.088Z,14.25
2022-09-11T05:05:17.789Z,14.08
2022-09-11T05:07:44.139Z,14.31
2022-09-11T05:10:10.986Z,14.21
2022-09-11T05:12:37.371Z,14.23
2022-09-11T05:15:04.225Z,14.39
2022-09-11T05:17:30.596Z,14.37
2022-09-11T05:19:56.966Z,14.49
2022-09-11T05:22:23.315Z,14.48
2022-09-11T05:24:49.672Z,14.58
2022-09-11T05:27:16.031Z,14.69
2022-09-11T05:29:42.408Z,14.71
2022-09-11T05:32:08.808Z,14.77
2022-09-11T05:34:35.162Z,14.62
2022-09-11T05:37:02.173Z,14.69
2022-09-11T05:39:28.545Z,14.64
2022-09-11T05:41:55.332Z,14.81
2022-09-11T05:44:21.685Z,14.81
2022-09-11T05:46:48.674Z,14.67
2022-09-11T05:49:15.865Z,14.73
2022-09-11T05:51:42.275Z,14.63
2022-09-11T05:54:08.703Z,14.67
2022-09-11T05:56:35.077Z,14.62
2022-09-11T05:59:02.555Z,14.65
2022-09-11T06:01:29.459Z,14.56
2022-09-11T06:03:56.535Z,14.55
2022-09-11T06:06:23.673Z,14.80
2022-09-11T06:08:51.725Z,14.89
2022-09-11T06:11:19.246Z,14.95
2022-09-11T06:13:49.103Z,15.11
2022-09-11T06:16:21.464Z,14.96
2022-09-11T06:18:49.326Z,15.16
2022-09-11T06:21:20.643Z,15.24
2022-09-11T06:23:48.801Z,15.29
2022-09-11T06:26:17.710Z,15.36
2022-09-11T06:28:44.111Z,15.32
2022-09-11T06:31:12.787Z,15.49
2022-09-11T06:33:40.489Z,15.50
2022-09-11T06:36:10.563Z,15.58
2022-09-11T06:38:38.132Z,15.35
2022-09-11T06:41:06.575Z,15.80
2022-09-11T06:43:33.158Z,15.92
2022-09-11T06:46:12.792Z,15.86
2022-09-11T06:48:43.547Z,16.07
2022-09-11T06:51:11.980Z,16.01
2022-09-11T06:53:40.147Z,16.16
2022-09-11T06:56:07.439Z,16.32
2022-09-11T06:58:33.955Z,16.47
2022-09-11T07:01:04.196Z,16.58
2022-09-11T07:03:31.180Z,16.74
2022-09-11T07:05:57.615Z,16.74
2022-09-11T07:08:25.118Z,16.89
2022-09-11T07:10:51.648Z,16.99
2022-09-11T07:13:18.264Z,17.08
2022-09-11T07:15:44.614Z,17.01
2022-09-11T07:18:11.385Z,17.31
2022-09-11T07:20:39.288Z,17.42
2022-09-11T07:23:05.625Z,17.39
2022-09-11T07:25:32.021Z,17.53
2022-09-11T07:27:58.416Z,17.43
2022-09-11T07:30:24.812Z,17.73
2022-09-11T07:32:51.186Z,17.88
2022-09-11T07:35:21.541Z,17.88
2022-09-11T07:37:50.868Z,18.11
2022-09-11T07:40:17.513Z,18.10
2022-09-11T07:42:43.919Z,18.30
2022-09-11T07:45:10.677Z,18.38
2022-09-11T07:47:38.462Z,18.56
2022-09-11T07:50:05.745Z,18.60
2022-09-11T07:52:32.369Z,18.66
2022-09-11T07:54:58.717Z,18.84
2022-09-11T07:57:25.095Z,18.94
2022-09-11T07:59:51.656Z,18.96
2022-09-11T08:02:18.062Z,19.02
2022-09-11T08:04:44.842Z,19.07
2022-09-11T08:07:11.696Z,19.34
2022-09-11T08:09:38.190Z,19.33
2022-09-11T08:12:05.180Z,19.34
2022-09-11T08:14:31.565Z,19.69
2022-09-11T08:16:57.928Z,19.59
2022-09-11T08:19:24.541Z,19.81
2022-09-11T08:21:51.443Z,20.27
2022-09-11T08:24:18.404Z,20.33
2022-09-11T08:26:48.766Z,20.50
2022-09-11T08:29:15.521Z,20.51
2022-09-11T08:31:41.897Z,20.69
2022-09-11T08:34:09.901Z,20.48
2022-09-11T08:36:36.640Z,20.51
2022-09-11T08:39:03.591Z,20.33
2022-09-11T08:41:48.711Z,20.22
2022-09-11T08:44:25.667Z,19.79
2022-09-11T08:46:55.757Z,20.12
2022-09-11T08:49:39.481Z,19.75
2022-09-11T08:52:06.262Z,19.71
2022-09-11T08:54:36.387Z,19.87
2022-09-11T08:57:20.500Z,20.35
2022-09-11T09:00:21.144Z,20.42
2022-09-11T09:03:18.481Z,20.25
2022-09-11T09:05:54.909Z,20.10
2022-09-11T09:08:37.104Z,20.30
2022-09-11T09:11:28.960Z,20.29
2022-09-11T09:14:28.480Z,20.35
2022-09-11T09:16:59.836Z,20.90
2022-09-11T09:19:41.352Z,21.11
2022-09-11T09:22:27.501Z,21.01
2022-09-11T09:24:59.753Z,21.69
2022-09-11T09:27:55.358Z,21.83
2022-09-11T09:30:24.440Z,21.54
2022-09-11T09:33:28.448Z,21.91
2022-09-11T09:35:54.801Z,22.38
2022-09-11T09:38:26.355Z,22.64
2022-09-11T09:41:07.193Z,23.06
2022-09-11T09:43:52.088Z,23.27
2022-09-11T09:46:31.326Z,23.71
2022-09-11T09:48:57.774Z,23.97
2022-09-11T09:51:24.158Z,23.87
2022-09-11T09:53:54.596Z,23.68
2022-09-11T09:56:21.544Z,23.87
2022-09-11T09:59:03.575Z,23.82
2022-09-11T10:01:39.572Z,23.68
2022-09-11T10:04:10.979Z,23.47
2022-09-11T10:06:37.377Z,22.87
2022-09-11T10:09:03.964Z,22.99
2022-09-11T10:11:30.645Z,22.69
2022-09-11T10:13:57.340Z,22.74
2022-09-11T10:16:25.820Z,22.35
2022-09-11T10:18:53.212Z,22.30
2022-09-11T10:21:33.289Z,21.97
2022-09-11T10:24:00.780Z,21.83
2022-09-11T10:26:34.147Z,21.73
2022-09-11T10:29:13.286Z,21.73
2022-09-11T10:31:42.011Z,21.73
2022-09-11T10:34:14.751Z,21.61
2022-09-11T10:37:01.299Z,21.41
2022-09-11T10:39:29.784Z,21.38
2022-09-11T10:41:59.416Z,21.38
2022-09-11T10:44:26.888Z,21.45
2022-09-11T10:47:12.313Z,21.17
2022-09-11T10:49:39.049Z,21.11
2022-09-11T10:52:08.314Z,21.14
2022-09-11T10:54:44.590Z,20.96
2022-09-11T10:57:29.148Z,21.07
2022-09-11T11:00:00.932Z,20.97
2022-09-11T11:02:35.683Z,20.89
2022-09-11T11:05:08.643Z,20.73
2022-09-11T11:08:02.496Z,20.76
2022-09-11T11:10:40.678Z,20.85
2022-09-11T11:13:22.627Z,20.88
2022-09-11T11:15:56.380Z,21.03
2022-09-11T11:18:34.188Z,21.12
2022-09-11T11:21:21.811Z,21.13
2022-09-11T11:24:18.835Z,21.42
2022-09-11T11:26:59.713Z,21.66
2022-09-11T11:29:35.288Z,21.85
2022-09-11T11:32:06.735Z,21.82
2022-09-11T11:34:55.089Z,22.07
2022-09-11T11:37:27.950Z,21.84
2022-09-11T11:40:09.050Z,22.01
2022-09-11T11:42:38.968Z,21.87
2022-09-11T11:45:22.670Z,21.88
2022-09-11T11:47:51.272Z,21.80
2022-09-11T11:50:37.611Z,21.74
2022-09-11T11:53:13.072Z,21.77
2022-09-11T11:56:00.835Z,21.77
2022-09-11T11:58:59.925Z,21.87
2022-09-11T12:01:35.182Z,21.90
2022-09-11T12:04:12.950Z,21.74
2022-09-11T12:06:39.348Z,21.91
2022-09-11T12:09:08.163Z,21.99
2022-09-11T12:11:35.126Z,22.07
2022-09-11T12:14:01.600Z,22.12
2022-09-11T12:16:34.708Z,22.29
2022-09-11T12:19:07.480Z,22.13
2022-09-11T12:21:36.832Z,22.31
2022-09-11T12:24:03.080Z,22.11
2022-09-11T12:26:31.429Z,22.29
2022-09-11T12:29:13.988Z,22.33
2022-09-11T12:31:49.453Z,22.57
2022-09-11T12:34:47.278Z,22.71
2022-09-11T12:37:35.508Z,22.90
2022-09-11T12:40:22.974Z,22.89
2022-09-11T12:42:58.458Z,23.08
2022-09-11T12:45:36.368Z,23.12
2022-09-11T12:48:05.289Z,23.13
2022-09-11T12:50:31.883Z,23.02
2022-09-11T12:53:02.365Z,22.93
2022-09-11T12:55:41.169Z,22.69
2022-09-11T12:58:25.044Z,22.60
2022-09-11T13:01:01.616Z,22.65
2022-09-11T13:03:28.688Z,22.70
2022-09-11T13:06:07.547Z,22.65
2022-09-11T13:08:38.079Z,22.65
2022-09-11T13:11:36.893Z,22.64
2022-09-11T13:14:04.342Z,22.90
2022-09-11T13:16:31.718Z,23.19
2022-09-11T13:19:20.581Z,23.84
2022-09-11T13:21:49.593Z,24.60
2022-09-11T13:24:27.319Z,25.81
2022-09-11T13:26:56.440Z,26.70
2022-09-11T13:29:24.821Z,27.62
2022-09-11T13:31:51.319Z,28.25
2022-09-11T13:34:18.722Z,28.95
2022-09-11T13:36:47.055Z,28.43
2022-09-11T13:39:14.393Z,29.30
2022-09-11T13:41:44.349Z,29.13
2022-09-11T13:44:30.173Z,29.62
2022-09-11T13:46:56.520Z,29.96
2022-09-11T13:49:31.148Z,29.68
2022-09-11T13:51:58.445Z,29.39
2022-09-11T13:54:41.096Z,28.29
2022-09-11T13:57:23.065Z,27.59
2022-09-11T13:59:49.427Z,27.43
2022-09-11T14:02:27.923Z,26.91
2022-09-11T14:05:01.478Z,26.48
2022-09-11T14:07:27.910Z,26.07
2022-09-11T14:10:01.079Z,26.08
2022-09-11T14:12:28.826Z,25.77
2022-09-11T14:14:57.205Z,25.61
2022-09-11T14:17:23.833Z,25.55
2022-09-11T14:19:51.440Z,25.20
2022-09-11T14:22:25.051Z,24.97
2022-09-11T14:24:56.213Z,24.80
2022-09-11T14:27:34.574Z,24.66
2022-09-11T14:30:00.923Z,24.51
2022-09-11T14:32:31.720Z,24.28
2022-09-11T14:34:58.593Z,24.34
2022-09-11T14:37:29.865Z,24.99
2022-09-11T14:39:59.017Z,25.62
2022-09-11T14:42:29.275Z,25.34
2022-09-11T14:44:56.034Z,25.61
2022-09-11T14:47:27.718Z,25.57
2022-09-11T14:49:55.668Z,25.58
2022-09-11T14:52:24.671Z,25.60
2022-09-11T14:54:51.352Z,25.63
2022-09-11T14:57:21.139Z,25.47
2022-09-11T14:59:47.606Z,25.15
2022-09-11T15:02:16.164Z,24.69
2022-09-11T15:04:42.527Z,24.44
2022-09-11T15:07:13.256Z,24.26
2022-09-11T15:09:39.955Z,24.21
2022-09-11T15:12:07.579Z,24.02
2022-09-11T15:14:54.920Z,23.86
2022-09-11T15:17:20.791Z,23.70
2022-09-11T15:19:49.428Z,23.73
2022-09-11T15:22:16.236Z,23.56
2022-09-11T15:24:42.696Z,23.52
2022-09-11T15:27:10.279Z,23.47
2022-09-11T15:29:38.501Z,23.49
2022-09-11T15:32:06.122Z,23.49
2022-09-11T15:34:33.066Z,23.33
2022-09-11T15:37:00.173Z,23.16
2022-09-11T15:39:27.838Z,23.09
2022-09-11T15:41:57.305Z,23.12
2022-09-11T15:44:26.205Z,23.11
2022-09-11T15:46:53.873Z,23.13
2022-09-11T15:49:22.070Z,23.06
2022-09-11T15:51:49.173Z,22.94
2022-09-11T15:54:15.782Z,22.86
2022-09-11T15:56:42.957Z,22.94
2022-09-11T15:59:11.197Z,22.75
2022-09-11T16:01:37.798Z,22.76
2022-09-11T16:04:07.140Z,22.87
2022-09-11T16:06:34.542Z,22.45
2022-09-11T16:09:04.121Z,22.75
2022-09-11T16:11:31.730Z,22.72
2022-09-11T16:13:58.735Z,22.63
2022-09-11T16:16:25.625Z,22.61
2022-09-11T16:18:52.301Z,22.66
2022-09-11T16:21:19.828Z,22.72
2022-09-11T16:23:51.165Z,22.67
2022-09-11T16:26:20.837Z,22.73
2022-09-11T16:28:48.126Z,22.53
2022-09-11T16:31:15.291Z,22.50
2022-09-11T16:33:49.839Z,22.37
2022-09-11T16:36:18.478Z,22.40
2022-09-11T16:38:45.564Z,22.39
2022-09-11T16:41:18.706Z,22.17
2022-09-11T16:43:47.568Z,22.13
2022-09-11T16:46:16.519Z,22.16
2022-09-11T16:48:44.064Z,22.12
2022-09-11T16:51:11.738Z,21.94
2022-09-11T16:53:38.877Z,21.92
2022-09-11T16:56:07.191Z,21.97
2022-09-11T16:58:36.488Z,21.94
2022-09-11T17:01:06.512Z,21.87
2022-09-11T17:03:32.897Z,21.97
2022-09-11T17:05:59.337Z,21.85
2022-09-11T17:08:26.110Z,21.84
2022-09-11T17:10:57.478Z,21.60
2022-09-11T17:13:24.442Z,21.66
2022-09-11T17:15:51.331Z,21.68
2022-09-11T17:18:17.776Z,21.62
2022-09-11T17:20:44.147Z,21.59
2022-09-11T17:23:11.189Z,21.58
2022-09-11T17:25:40.116Z,21.65
2022-09-11T17:28:07.776Z,21.67
2022-09-11T17:30:39.489Z,21.51
2022-09-11T17:33:06.379Z,21.32
2022-09-11T17:35:32.808Z,21.14
2022-09-11T17:38:01.148Z,21.29
2022-09-11T17:40:27.534Z,21.32
2022-09-11T17:42:53.887Z,21.11
2022-09-11T17:45:20.316Z,20.98
2022-09-11T17:47:46.676Z,20.83
2022-09-11T17:50:14.343Z,20.64
2022-09-11T17:52:40.697Z,20.59
2022-09-11T17:55:07.549Z,20.45
2022-09-11T17:57:33.938Z,20.41
2022-09-11T18:00:00.371Z,20.45
2022-09-11T18:02:27.212Z,20.26
2022-09-11T18:04:53.657Z,20.18
2022-09-11T18:07:20.077Z,20.05
2022-09-11T18:09:46.901Z,20.05
2022-09-11T18:12:14.497Z,20.02
2022-09-11T18:14:43.197Z,19.99
2022-09-11T18:17:10.191Z,19.71
2022-09-11T18:19:38.716Z,19.73
2022-09-11T18:22:10.026Z,19.73
2022-09-11T18:24:36.481Z,19.69
2022-09-11T18:27:02.887Z,19.74
2022-09-11T18:29:30.399Z,19.56
2022-09-11T18:31:57.354Z,19.39
2022-09-11T18:34:26.406Z,19.26
2022-09-11T18:36:52.912Z,19.16
2022-09-11T18:39:20.892Z,19.12
2022-09-11T18:41:48.286Z,19.06
2022-09-11T18:44:19.674Z,18.88
2022-09-11T18:46:47.008Z,18.94
2022-09-11T18:49:14.408Z,18.88
2022-09-11T18:51:42.035Z,18.92
2022-09-11T18:54:16.242Z,18.63
2022-09-11T18:56:42.803Z,18.64
2022-09-11T18:59:10.648Z,18.50
2022-09-11T19:01:37.283Z,18.44
2022-09-11T19:04:10.039Z,18.47
2022-09-11T19:06:38.568Z,18.55
2022-09-11T19:09:07.127Z,18.39
2022-09-11T19:11:33.985Z,18.32
2022-09-11T19:14:05.911Z,18.19
2022-09-11T19:16:33.179Z,18.14
2022-09-11T19:19:00.338Z,18.14
2022-09-11T19:21:27.557Z,18.12
2022-09-11T19:23:55.960Z,17.97
2022-09-11T19:26:33.347Z,17.99
2022-09-11T19:29:00.480Z,17.95
2022-09-11T19:31:29.409Z,17.98
2022-09-11T19:33:57.156Z,17.99
2022-09-11T19:36:25.654Z,17.90
2022-09-11T19:38:54.993Z,18.00
2022-09-11T19:41:26.132Z,17.86
2022-09-11T19:43:54.012Z,17.68
2022-09-11T19:46:25.205Z,17.73
2022-09-11T19:48:53.345Z,17.64
2022-09-11T19:51:25.020Z,17.54
2022-09-11T19:53:52.471Z,17.55
2022-09-11T19:56:20.130Z,17.48
2022-09-11T19:58:46.489Z,17.51
2022-09-11T20:01:15.073Z,17.53
2022-09-11T20:03:43.137Z,17.49
2022-09-11T20:06:11.073Z,17.55
2022-09-11T20:08:38.226Z,17.54
2022-09-11T20:11:07.033Z,17.55
2022-09-11T20:13:36.817Z,17.44
2022-09-11T20:16:14.937Z,17.41
2022-09-11T20:18:42.080Z,17.39
2022-09-11T20:21:11.176Z,17.42
2022-09-11T20:23:38.359Z,17.19
2022-09-11T20:26:08.770Z,17.10
2022-09-11T20:28:35.646Z,17.10
2022-09-11T20:31:02.045Z,17.16
2022-09-11T20:33:28.417Z,17.17
2022-09-11T20:35:54.778Z,17.15
2022-09-11T20:38:22.164Z,17.15
2022-09-11T20:40:48.513Z,17.08
2022-09-11T20:43:14.982Z,17.06
2022-09-11T20:45:42.494Z,16.97
2022-09-11T20:48:08.844Z,16.96
2022-09-11T20:50:35.192Z,16.95
2022-09-11T20:53:01.527Z,16.92
2022-09-11T20:55:27.878Z,16.95
2022-09-11T20:57:55.157Z,16.88
2022-09-11T21:00:21.526Z,17.03
2022-09-11T21:02:47.863Z,17.05
2022-09-11T21:05:24.989Z,17.00
2022-09-11T21:07:51.354Z,16.81
2022-09-11T21:10:17.734Z,16.83
2022-09-11T21:12:44.079Z,16.75
2022-09-11T21:15:10.517Z,16.65
2022-09-11T21:17:36.975Z,16.62
2022-09-11T21:20:03.727Z,16.68
2022-09-11T21:22:30.059Z,16.66
2022-09-11T21:24:56.812Z,16.61
2022-09-11T21:27:23.155Z,16.63
2022-09-11T21:29:49.495Z,16.73
2022-09-11T21:32:15.847Z,16.66
2022-09-11T21:34:42.184Z,16.66
2022-09-11T21:37:08.524Z,16.55
2022-09-11T21:39:35.689Z,16.56
2022-09-11T21:42:02.027Z,16.50
2022-09-11T21:44:28.386Z,16.53
2022-09-11T21:46:54.835Z,16.45
2022-09-11T21:49:21.247Z,16.35
2022-09-11T21:51:48.641Z,16.36
2022-09-11T21:54:15.019Z,16.42
2022-09-11T21:56:41.587Z,16.44
2022-09-11T21:59:07.959Z,16.21
2022-09-11T22:01:35.305Z,16.16
2022-09-11T22:04:01.847Z,16.19
2022-09-11T22:06:29.473Z,16.15
2022-09-11T22:08:56.305Z,16.06
2022-09-11T22:11:23.019Z,16.06
2022-09-11T22:13:50.076Z,16.16
2022-09-11T22:16:18.211Z,16.16
2022-09-11T22:18:48.479Z,16.15
2022-09-11T22:21:15.046Z,16.16
2022-09-11T22:23:41.447Z,16.12
2022-09-11T22:26:10.692Z,16.12
2022-09-11T22:28:37.748Z,16.21
2022-09-11T22:31:22.281Z,16.19
2022-09-11T22:33:48.764Z,16.14
2022-09-11T22:36:19.114Z,16.05
2022-09-11T22:38:46.683Z,15.92
2022-09-11T22:41:13.030Z,15.95
2022-09-11T22:43:39.648Z,15.88
2022-09-11T22:46:06.302Z,15.93
2022-09-11T22:48:33.029Z,16.04
2022-09-11T22:50:59.479Z,16.16
2022-09-11T22:53:26.932Z,16.11
2022-09-11T22:55:53.956Z,15.92
2022-09-11T22:58:21.305Z,15.83
2022-09-11T23:00:48.706Z,15.82
2022-09-11T23:03:15.481Z,15.76
2022-09-11T23:06:00.343Z,15.79
2022-09-11T23:08:34.711Z,15.91
2022-09-11T23:11:04.923Z,16.01
2022-09-11T23:13:31.824Z,16.01
2022-09-11T23:15:59.149Z,15.98
2022-09-11T23:18:27.250Z,15.77
2022-09-11T23:20:55.209Z,15.78
2022-09-11T23:23:22.269Z,15.72
2022-09-11T23:25:48.714Z,15.81
2022-09-11T23:28:15.089Z,15.87
2022-09-11T23:30:41.755Z,15.87
2022-09-11T23:33:08.127Z,15.82
2022-09-11T23:35:37.268Z,15.71
2022-09-11T23:38:03.622Z,15.81
2022-09-11T23:40:33.314Z,15.85
2022-09-11T23:43:01.094Z,15.86
2022-09-11T23:45:27.740Z,15.73
2022-09-11T23:47:54.099Z,15.58
2022-09-11T23:50:20.703Z,15.56
2022-09-11T23:52:47.055Z,15.61
2022-09-11T23:55:14.482Z,15.52
2022-09-11T23:57:40.823Z,15.40
